Time;durP1;ratioP1;P1;durP2;ratioP2;P2;SDS_P1;SDS_P2;PMS_P1;PMS_P2;Temp;Humidity;BMP_temperature;BMP_pressure;BME280_temperature;BME280_humidity;BME280_pressure;Samples;Min_cycle;Max_cycle;Signal;HPM_P1;HPM_P2
2023/04/09 00:00:04;;;;;;;8.88;6.45;;;;;;;6.85;85.38;101325.41;4911449;29;20115;-96
2023/04/09 00:02:30;;;;;;;9.63;6.82;;;;;;;6.69;86.57;101306.19;4911203;29;20123;-95
2023/04/09 00:04:55;;;;;;;8.55;6.63;;;;;;;6.66;86.91;101306.28;4910046;29;20111;-95
2023/04/09 00:07:21;;;;;;;11.93;6.85;;;;;;;6.76;86.94;101310.25;4906109;29;20102;-94
2023/04/09 00:09:46;;;;;;;8.55;6.07;;;;;;;6.59;88.38;101304.75;4912196;29;20060;-95
2023/04/09 00:12:12;;;;;;;11.68;7.38;;;;;;;6.54;89.58;101296.34;4910760;29;20027;-94
2023/04/09 00:14:40;;;;;;;12.30;6.70;;;;;;;6.59;89.44;101289.38;4911227;29;20024;-95
2023/04/09 00:17:08;;;;;;;8.43;6.38;;;;;;;6.61;89.47;101295.28;4909923;29;20033;-94
2023/04/09 00:19:36;;;;;;;9.52;7.68;;;;;;;6.58;89.87;101293.66;4909597;29;20020;-94
2023/04/09 00:22:01;;;;;;;9.95;7.18;;;;;;;6.47;90.32;101282.00;4910972;29;20032;-94
2023/04/09 00:24:27;;;;;;;10.45;8.27;;;;;;;6.39;91.57;101277.91;4911881;29;20095;-94
2023/04/09 00:26:52;;;;;;;13.25;7.88;;;;;;;6.46;91.81;101299.09;4910676;29;20040;-95
2023/04/09 00:29:21;;;;;;;10.10;7.15;;;;;;;6.32;93.52;101296.06;4912416;29;20028;-94
2023/04/09 00:31:46;;;;;;;12.68;9.02;;;;;;;6.18;94.52;101275.91;4915326;29;20024;-95
2023/04/09 00:34:15;;;;;;;12.05;7.47;;;;;;;6.29;94.67;101285.88;4912934;29;20031;-95
2023/04/09 00:36:43;;;;;;;11.13;8.15;;;;;;;6.26;94.87;101284.22;4912696;29;20096;-95
2023/04/09 00:39:11;;;;;;;11.18;7.82;;;;;;;6.10;95.88;101263.28;4915253;29;20028;-94
2023/04/09 00:41:37;;;;;;;12.18;8.35;;;;;;;6.18;96.09;101268.22;4912550;29;20123;-95
2023/04/09 00:44:02;;;;;;;13.25;8.02;;;;;;;6.06;96.98;101259.13;4913718;29;20035;-95
2023/04/09 00:46:40;;;;;;;12.80;9.40;;;;;;;6.26;97.33;101280.81;4911149;29;20099;-95
2023/04/09 00:49:05;;;;;;;15.60;9.23;;;;;;;6.06;97.66;101254.00;4908517;29;20024;-94
2023/04/09 00:51:37;;;;;;;13.48;9.57;;;;;;;6.20;97.28;101254.47;4913201;29;20130;-95
2023/04/09 00:54:03;;;;;;;;;;;;;;;6.09;98.59;101269.28;4913818;29;20036;-93
2023/04/09 00:56:29;;;;;;;14.18;9.07;;;;;;;5.96;99.93;101257.66;4912322;29;19922;-95
2023/04/09 00:58:55;;;;;;;14.65;9.43;;;;;;;6.22;98.33;101247.59;4910489;29;20032;-94
2023/04/09 01:01:20;;;;;;;16.48;10.13;;;;;;;6.12;98.53;101240.16;4913413;29;20781;-93
2023/04/09 01:03:48;;;;;;;17.02;9.70;;;;;;;6.15;98.22;101232.41;4911327;29;20149;-95
2023/04/09 01:06:25;;;;;;;15.05;10.02;;;;;;;6.12;98.46;101232.47;4912211;29;20024;-94
2023/04/09 01:09:03;;;;;;;16.33;10.38;;;;;;;6.19;98.67;101234.00;4910513;29;20103;-94
2023/04/09 01:11:45;;;;;;;15.00;10.98;;;;;;;6.17;98.97;101240.91;4907120;29;20028;-94
2023/04/09 01:14:21;;;;;;;14.10;10.65;;;;;;;6.10;98.96;101231.72;4905858;29;20483;-95
2023/04/09 01:16:57;;;;;;;13.65;10.55;;;;;;;6.04;99.53;101219.88;4921788;29;20075;-95
2023/04/09 01:19:37;;;;;;;12.05;9.35;;;;;;;6.13;99.34;101234.19;4901367;29;20514;-95
2023/04/09 01:22:09;;;;;;;19.75;9.55;;;;;;;6.03;99.02;101222.50;4901721;29;20028;-96
2023/04/09 01:25:03;;;;;;;12.95;9.80;;;;;;;6.06;99.27;101220.69;4900549;29;20035;-96
2023/04/09 01:27:41;;;;;;;13.02;9.75;;;;;;;5.90;100.00;101211.66;4901511;29;20032;-96
2023/04/09 01:30:14;;;;;;;12.55;8.60;;;;;;;6.13;99.21;101226.50;4901187;29;20028;-95
2023/04/09 01:32:45;;;;;;;14.10;9.15;;;;;;;6.05;98.83;101225.81;4901112;29;20032;-96
2023/04/09 01:35:23;;;;;;;20.38;10.65;;;;;;;6.06;99.36;101228.38;4901277;29;20032;-96
2023/04/09 01:37:54;;;;;;;13.05;9.73;;;;;;;6.05;99.98;101230.94;4901296;29;20031;-96
2023/04/09 01:40:25;;;;;;;14.63;9.65;;;;;;;5.90;100.00;101222.78;4901226;29;20423;-96
2023/04/09 01:42:53;;;;;;;17.90;10.55;;;;;;;5.93;100.00;101232.94;4901066;29;20396;-95
2023/04/09 01:45:19;;;;;;;16.55;9.85;;;;;;;5.80;100.00;101226.44;4900508;29;20123;-95
2023/04/09 01:47:51;;;;;;;11.57;8.77;;;;;;;5.71;100.00;101216.44;4901399;29;20176;-95
2023/04/09 01:50:25;;;;;;;15.75;10.45;;;;;;;5.67;100.00;101213.09;4901676;29;20029;-96
2023/04/09 01:52:53;;;;;;;18.70;12.75;;;;;;;5.46;100.00;101206.78;4900899;29;20119;-96
2023/04/09 01:55:26;;;;;;;13.23;9.15;;;;;;;5.43;100.00;101206.84;4901503;29;20032;-96
2023/04/09 01:58:00;;;;;;;16.50;10.73;;;;;;;5.42;100.00;101215.41;4902322;29;20099;-96
2023/04/09 02:00:33;;;;;;;17.02;11.85;;;;;;;5.46;100.00;101217.03;4902405;29;20095;-95
2023/04/09 02:03:22;;;;;;;18.98;11.52;;;;;;;5.55;100.00;101227.03;4901520;29;20520;-95
2023/04/09 02:06:04;;;;;;;18.70;11.13;;;;;;;5.55;100.00;101232.16;4900959;29;20032;-95
2023/04/09 02:08:36;;;;;;;15.50;10.80;;;;;;;5.50;100.00;101208.38;4901196;29;20035;-96
2023/04/09 02:11:12;;;;;;;16.05;11.32;;;;;;;5.48;100.00;101209.28;4901233;29;20040;-96
2023/04/09 02:13:45;;;;;;;15.88;11.07;;;;;;;5.34;100.00;101210.47;4901563;29;20141;-94
2023/04/09 02:16:19;;;;;;;17.13;11.32;;;;;;;5.33;100.00;101220.72;4901353;29;20032;-95
2023/04/09 02:18:53;;;;;;;15.95;11.00;;;;;;;5.42;100.00;101223.09;4916943;29;20043;-96
2023/04/09 02:21:21;;;;;;;16.48;10.82;;;;;;;5.45;100.00;101215.31;4901242;29;20051;-96
2023/04/09 02:23:52;;;;;;;20.65;11.13;;;;;;;5.42;100.00;101219.69;4901493;29;20115;-96
2023/04/09 02:26:18;;;;;;;17.10;11.00;;;;;;;5.36;100.00;101218.97;4901022;29;20047;-96
2023/04/09 02:28:44;;;;;;;18.05;12.02;;;;;;;5.53;100.00;101208.28;4900963;29;20028;-95
2023/04/09 02:31:21;;;;;;;19.85;12.02;;;;;;;5.46;100.00;101222.16;4901406;29;20059;-96
2023/04/09 02:33:46;;;;;;;19.20;12.60;;;;;;;5.42;100.00;101212.84;4902005;29;20024;-96
2023/04/09 02:36:12;;;;;;;16.42;11.40;;;;;;;5.39;100.00;101215.50;4906581;29;20035;-95
2023/04/09 02:38:49;;;;;;;15.80;11.57;;;;;;;5.28;100.00;101209.75;4904933;29;20415;-96
2023/04/09 02:41:17;;;;;;;17.88;12.07;;;;;;;5.21;100.00;101196.25;4905261;29;20028;-95
2023/04/09 02:43:43;;;;;;;20.45;11.95;;;;;;;5.19;100.00;101190.31;4904739;29;20562;-96
2023/04/09 02:46:09;;;;;;;16.42;12.02;;;;;;;5.41;100.00;101193.22;4904721;29;20135;-94
2023/04/09 02:48:39;;;;;;;20.05;12.65;;;;;;;5.29;100.00;101199.50;4904942;29;20131;-94
2023/04/09 02:51:13;;;;;;;17.40;11.30;;;;;;;5.37;100.00;101194.19;4905162;29;20023;-95
2023/04/09 02:53:44;;;;;;;20.25;12.50;;;;;;;5.35;100.00;101201.06;4905261;29;20123;-96
2023/04/09 02:56:14;;;;;;;17.98;12.27;;;;;;;5.59;100.00;101191.97;4906419;29;20028;-96
2023/04/09 02:58:43;;;;;;;16.10;11.45;;;;;;;5.51;100.00;101188.72;4906687;29;20043;-96
2023/04/09 03:01:11;;;;;;;15.35;10.85;;;;;;;5.67;100.00;101186.63;4905765;29;20028;-95
2023/04/09 03:03:42;;;;;;;17.60;11.30;;;;;;;5.69;100.00;101175.47;4904122;29;20030;-96
2023/04/09 03:06:17;;;;;;;15.50;11.55;;;;;;;5.50;100.00;101193.00;4904057;29;20028;-96
2023/04/09 03:08:51;;;;;;;16.15;11.68;;;;;;;5.34;100.00;101176.31;4919736;29;20127;-95
2023/04/09 03:11:19;;;;;;;20.10;12.95;;;;;;;5.45;100.00;101171.81;4904829;29;20088;-94
2023/04/09 03:13:52;;;;;;;17.15;11.65;;;;;;;5.55;100.00;101178.38;4904271;29;20155;-95
2023/04/09 03:16:26;;;;;;;21.55;13.13;;;;;;;5.32;100.00;101158.47;4919730;29;20498;-96
2023/04/09 03:18:54;;;;;;;20.48;12.48;;;;;;;5.39;100.00;101164.28;4903856;29;20501;-95
2023/04/09 03:21:26;;;;;;;19.95;12.63;;;;;;;5.40;100.00;101155.72;4903889;29;20068;-95
2023/04/09 03:23:51;;;;;;;18.25;12.23;;;;;;;5.41;100.00;101165.06;4903059;29;20525;-95
2023/04/09 03:26:20;;;;;;;16.30;12.18;;;;;;;5.36;100.00;101159.22;4919525;29;20044;-95
2023/04/09 03:28:48;;;;;;;19.10;11.98;;;;;;;5.28;100.00;101150.91;4903600;29;20087;-95
2023/04/09 03:31:22;;;;;;;17.90;12.25;;;;;;;5.21;100.00;101162.16;4918793;29;20071;-94
2023/04/09 03:33:50;;;;;;;17.35;12.88;;;;;;;5.07;100.00;101147.97;4903647;29;20028;-96
2023/04/09 03:36:21;;;;;;;17.42;13.20;;;;;;;5.21;100.00;101165.53;4904566;29;20036;-96
2023/04/09 03:38:49;;;;;;;16.92;12.25;;;;;;;5.23;100.00;101142.50;4903707;29;20043;-96
2023/04/09 03:41:28;;;;;;;19.83;13.23;;;;;;;5.10;100.00;101137.66;4904733;29;20068;-96
2023/04/09 03:43:56;;;;;;;21.77;13.40;;;;;;;5.05;100.00;101148.91;4903749;29;20020;-96
2023/04/09 03:46:25;;;;;;;19.60;12.45;;;;;;;4.95;100.00;101135.47;4902764;29;20664;-96
2023/04/09 03:49:06;;;;;;;17.42;12.65;;;;;;;4.95;100.00;101122.69;4904025;29;20438;-96
2023/04/09 03:51:36;;;;;;;20.65;13.43;;;;;;;4.94;100.00;101136.31;4903372;29;20102;-96
2023/04/09 03:54:05;;;;;;;18.20;13.00;;;;;;;4.93;100.00;101124.44;4904285;29;20056;-96
2023/04/09 03:56:33;;;;;;;18.85;13.10;;;;;;;4.94;100.00;101115.88;4901712;29;20032;-96
2023/04/09 03:59:01;;;;;;;20.15;12.23;;;;;;;5.11;100.00;101129.09;4903825;29;20163;-96
2023/04/09 04:01:29;;;;;;;20.50;12.90;;;;;;;5.02;100.00;101113.97;4903545;29;20075;-96
2023/04/09 04:03:58;;;;;;;24.20;13.40;;;;;;;4.94;100.00;101106.47;4903893;29;20501;-96
2023/04/09 04:06:26;;;;;;;21.25;12.55;;;;;;;5.03;100.00;101115.66;4903329;29;20462;-96
2023/04/09 04:08:59;;;;;;;21.27;13.50;;;;;;;5.25;100.00;101107.47;4903324;29;20032;-96
2023/04/09 04:11:39;;;;;;;24.08;13.73;;;;;;;5.08;100.00;101093.34;4903326;29;20536;-96
2023/04/09 04:14:14;;;;;;;20.75;13.45;;;;;;;4.96;100.00;101088.53;4903833;29;20028;-96
2023/04/09 04:16:45;;;;;;;23.73;13.95;;;;;;;4.84;100.00;101073.47;4902707;29;20042;-96
2023/04/09 04:19:14;;;;;;;21.23;14.88;;;;;;;5.02;100.00;101065.34;4902864;29;20024;-95
2023/04/09 04:21:39;;;;;;;24.80;15.50;;;;;;;5.25;100.00;101081.88;4903009;29;20091;-96
2023/04/09 04:24:10;;;;;;;24.33;14.75;;;;;;;5.28;100.00;101061.31;4902748;29;20040;-96
2023/04/09 04:26:36;;;;;;;23.13;15.10;;;;;;;5.19;100.00;101056.41;4902243;29;20182;-96
2023/04/09 04:29:01;;;;;;;20.25;15.40;;;;;;;5.01;100.00;101063.69;4918691;29;20505;-96
2023/04/09 04:31:30;;;;;;;26.35;17.25;;;;;;;4.98;100.00;101061.19;4902994;29;20039;-96
2023/04/09 04:34:06;;;;;;;27.25;16.65;;;;;;;4.97;100.00;101069.75;4903527;29;20074;-96
2023/04/09 04:36:42;;;;;;;25.33;15.43;;;;;;;4.85;100.00;101064.91;4905461;29;20032;-96
2023/04/09 04:39:09;;;;;;;26.23;15.60;;;;;;;4.89;100.00;101067.38;4906508;29;20028;-96
2023/04/09 04:41:43;;;;;;;27.83;15.88;;;;;;;4.83;100.00;101066.66;4907563;29;20095;-95
2023/04/09 04:44:08;;;;;;;19.77;14.35;;;;;;;4.89;100.00;101066.53;4906385;29;20394;-96
2023/04/09 04:46:42;;;;;;;27.35;15.93;;;;;;;4.80;100.00;101069.31;4905754;29;20032;-95
2023/04/09 04:49:13;;;;;;;22.50;14.15;;;;;;;4.72;100.00;101088.22;4906345;29;20371;-95
2023/04/09 04:51:41;;;;;;;22.80;14.45;;;;;;;4.60;100.00;101080.81;4908200;29;20020;-95
2023/04/09 04:54:08;;;;;;;21.17;15.02;;;;;;;4.61;100.00;101094.44;4909492;29;20042;-95
2023/04/09 04:56:39;;;;;;;21.05;13.77;;;;;;;4.47;100.00;101094.75;4908600;29;20039;-94
2023/04/09 04:59:10;;;;;;;22.17;14.93;;;;;;;4.19;100.00;101071.50;4904225;29;20494;-95
2023/04/09 05:01:38;;;;;;;22.60;15.15;;;;;;;4.12;100.00;101075.03;4904137;29;20024;-95
2023/04/09 05:04:07;;;;;;;21.77;14.20;;;;;;;4.11;100.00;101097.22;4902610;29;20111;-95
2023/04/09 05:06:33;;;;;;;24.02;15.32;;;;;;;4.03;100.00;101104.19;4902591;29;20095;-96
2023/04/09 05:09:00;;;;;;;23.50;13.23;;;;;;;4.14;100.00;101096.31;4902188;29;20032;-95
2023/04/09 05:11:26;;;;;;;23.58;15.95;;;;;;;4.02;100.00;101094.81;4918193;29;20020;-95
2023/04/09 05:14:04;;;;;;;21.85;14.32;;;;;;;3.94;100.00;101099.25;4902322;29;20036;-95
2023/04/09 05:16:43;;;;;;;19.83;14.48;;;;;;;3.88;100.00;101077.25;4903107;29;20490;-95
2023/04/09 05:19:11;;;;;;;27.23;16.67;;;;;;;3.94;100.00;101081.38;4902271;29;20029;-96
2023/04/09 05:21:37;;;;;;;22.48;14.55;;;;;;;4.03;100.00;101094.81;4902741;29;20254;-95
2023/04/09 05:24:03;;;;;;;25.45;14.68;;;;;;;3.88;100.00;101082.34;4902332;29;20032;-95
2023/04/09 05:26:29;;;;;;;26.10;15.23;;;;;;;4.03;100.00;101078.66;4917186;29;20043;-96
2023/04/09 05:28:57;;;;;;;33.65;16.23;;;;;;;3.96;100.00;101062.59;4902646;29;20031;-95
2023/04/09 05:31:23;;;;;;;25.33;15.60;;;;;;;4.11;100.00;101076.78;4901579;29;20024;-96
2023/04/09 05:33:49;;;;;;;28.38;16.17;;;;;;;4.19;100.00;101058.72;4900995;29;20324;-95
2023/04/09 05:36:16;;;;;;;25.73;16.55;;;;;;;4.14;100.00;101057.97;4901420;29;20063;-96
2023/04/09 05:38:43;;;;;;;26.70;16.10;;;;;;;4.25;100.00;101074.78;4902050;29;20394;-96
2023/04/09 05:41:09;;;;;;;22.33;15.02;;;;;;;4.18;100.00;101077.50;4902072;29;20072;-95
2023/04/09 05:43:39;;;;;;;24.38;16.45;;;;;;;4.16;100.00;101067.28;4902134;29;20024;-96
2023/04/09 05:46:05;;;;;;;29.25;18.08;;;;;;;4.12;100.00;101072.50;4916932;29;20112;-96
2023/04/09 05:48:40;;;;;;;31.17;18.77;;;;;;;4.20;100.00;101061.25;4900768;29;20114;-96
2023/04/09 05:51:08;;;;;;;26.55;17.23;;;;;;;4.36;100.00;101066.03;4901520;29;20056;-96
2023/04/09 05:53:34;;;;;;;39.25;20.73;;;;;;;4.61;100.00;101085.09;4901813;29;20096;-96
2023/04/09 05:56:11;;;;;;;28.48;17.80;;;;;;;4.53;100.00;101078.44;4902053;29;20071;-96
2023/04/09 05:58:37;;;;;;;36.17;20.00;;;;;;;4.72;100.00;101095.88;4904538;29;20476;-96
2023/04/09 06:01:06;;;;;;;28.42;18.40;;;;;;;4.77;100.00;101097.50;4903248;29;20035;-96
2023/04/09 06:03:34;;;;;;;36.97;19.98;;;;;;;4.92;100.00;101099.72;4903848;29;20040;-96
2023/04/09 06:06:10;;;;;;;32.45;19.55;;;;;;;4.78;100.00;101084.69;4901727;29;20028;-95
2023/04/09 06:08:36;;;;;;;30.02;19.42;;;;;;;4.96;100.00;101109.00;4905653;29;20394;-95
2023/04/09 06:11:02;;;;;;;38.97;21.23;;;;;;;5.06;100.00;101090.00;4904902;29;20030;-96
2023/04/09 06:13:28;;;;;;;42.05;21.27;;;;;;;5.07;100.00;101086.56;4905598;29;20492;-96
2023/04/09 06:15:54;;;;;;;33.08;20.20;;;;;;;5.05;100.00;101090.88;4905902;29;20032;-95
2023/04/09 06:18:19;;;;;;;39.42;22.08;;;;;;;5.12;100.00;101094.09;4905504;29;20032;-96
2023/04/09 06:20:45;;;;;;;37.80;22.40;;;;;;;5.23;100.00;101101.53;4905591;29;20029;-96
2023/04/09 06:23:11;;;;;;;40.78;22.55;;;;;;;5.30;100.00;101096.22;4904520;29;20043;-96
2023/04/09 06:25:36;;;;;;;47.67;24.67;;;;;;;5.28;100.00;101090.31;4904285;29;20142;-96
2023/04/09 06:28:02;;;;;;;41.20;23.48;;;;;;;5.21;100.00;101095.63;4905128;29;20070;-96
2023/04/09 06:30:30;;;;;;;47.90;24.10;;;;;;;5.15;100.00;101087.22;4905937;29;20028;-95
2023/04/09 06:32:56;;;;;;;49.17;26.50;;;;;;;5.09;100.00;101095.03;4906607;29;20028;-95
2023/04/09 06:35:22;;;;;;;51.25;25.63;;;;;;;5.36;100.00;101100.34;4904848;29;20474;-96
2023/04/09 06:37:47;;;;;;;48.15;25.98;;;;;;;5.48;100.00;101089.78;4904956;29;20028;-96
2023/04/09 06:40:13;;;;;;;46.08;26.65;;;;;;;5.31;100.00;101089.38;4904792;29;20036;-96
2023/04/09 06:42:39;;;;;;;53.33;27.95;;;;;;;5.41;100.00;101085.69;4904389;29;20039;-96
2023/04/09 06:45:12;;;;;;;49.45;26.50;;;;;;;5.63;100.00;101070.63;4904040;29;20060;-96
2023/04/09 06:47:41;;;;;;;52.53;27.40;;;;;;;5.70;100.00;101076.44;4903937;29;20044;-95
2023/04/09 06:50:07;;;;;;;57.67;29.98;;;;;;;5.55;100.00;101058.03;4904751;29;20028;-95
2023/04/09 06:52:32;;;;;;;49.92;26.83;;;;;;;5.74;100.00;101062.66;4903926;29;20368;-96
2023/04/09 06:54:58;;;;;;;58.22;28.45;;;;;;;5.74;100.00;101062.66;4904098;29;20031;-96
2023/04/09 06:57:27;;;;;;;50.53;26.10;;;;;;;5.89;100.00;101062.22;4904226;29;20028;-96
2023/04/09 06:59:53;;;;;;;54.17;27.85;;;;;;;5.99;100.00;101058.56;4903826;29;20271;-95
2023/04/09 07:02:19;;;;;;;58.35;28.98;;;;;;;6.05;100.00;101059.25;4903796;29;20028;-96
2023/04/09 07:04:44;;;;;;;52.83;27.83;;;;;;;6.33;100.00;101052.44;4903299;29;20031;-96
2023/04/09 07:07:11;;;;;;;43.70;26.38;;;;;;;6.19;100.00;101052.00;4903351;29;20113;-95
2023/04/09 07:09:39;;;;;;;58.78;28.23;;;;;;;6.26;100.00;101045.81;4919472;29;20031;-95
2023/04/09 07:12:05;;;;;;;44.78;25.92;;;;;;;6.43;100.00;101048.72;4903512;29;20115;-96
2023/04/09 07:14:33;;;;;;;47.95;26.98;;;;;;;6.49;100.00;101057.13;4904023;29;20024;-95
2023/04/09 07:16:58;;;;;;;52.33;26.98;;;;;;;6.62;100.00;101046.44;4903158;29;20020;-95
2023/04/09 07:19:24;;;;;;;47.08;25.75;;;;;;;6.65;100.00;101045.50;4904191;29;20024;-96
2023/04/09 07:21:54;;;;;;;48.97;27.95;;;;;;;6.64;100.00;101051.53;4903522;29;20120;-96
2023/04/09 07:24:25;;;;;;;42.75;24.55;;;;;;;6.71;100.00;101053.00;4903723;29;20056;-95
2023/04/09 07:26:54;;;;;;;46.75;26.58;;;;;;;6.91;100.00;101054.94;4903200;29;20039;-96
2023/04/09 07:29:21;;;;;;;45.58;25.15;;;;;;;7.03;100.00;101058.84;4903475;29;20082;-96
2023/04/09 07:31:47;;;;;;;46.55;25.58;;;;;;;6.93;100.00;101052.34;4903141;29;20387;-95
2023/04/09 07:34:12;;;;;;;51.20;26.15;;;;;;;6.85;100.00;101035.44;4903409;29;20028;-95
2023/04/09 07:36:39;;;;;;;53.13;27.02;;;;;;;6.86;100.00;101031.97;4918804;29;20032;-95
2023/04/09 07:39:05;;;;;;;53.42;27.52;;;;;;;7.03;100.00;101034.00;4903662;29;20052;-95
2023/04/09 07:41:33;;;;;;;47.75;26.73;;;;;;;6.95;100.00;101027.44;4902883;29;20048;-96
2023/04/09 07:43:58;;;;;;;48.80;26.92;;;;;;;6.91;100.00;101039.53;4903498;29;20028;-96
2023/04/09 07:46:24;;;;;;;50.38;28.33;;;;;;;6.72;100.00;101035.88;4906339;29;20478;-96
2023/04/09 07:48:50;;;;;;;49.85;27.88;;;;;;;6.97;100.00;101038.50;4903233;29;20043;-96
2023/04/09 07:51:15;;;;;;;47.88;26.17;;;;;;;7.10;100.00;101039.78;4918824;29;20478;-96
2023/04/09 07:53:41;;;;;;;55.33;29.92;;;;;;;7.11;100.00;101046.56;4904520;29;20028;-96
2023/04/09 07:56:07;;;;;;;52.00;26.88;;;;;;;7.41;100.00;101033.59;4905145;29;20028;-96
2023/04/09 07:58:32;;;;;;;45.97;26.50;;;;;;;7.41;100.00;101033.59;4903861;29;20280;-96
2023/04/09 08:00:58;;;;;;;47.95;27.05;;;;;;;7.38;100.00;101031.13;4905664;29;20128;-96
2023/04/09 08:03:23;;;;;;;51.15;30.33;;;;;;;7.50;100.00;101048.69;4906675;29;20027;-96
2023/04/09 08:05:49;;;;;;;53.08;27.45;;;;;;;7.39;100.00;101043.06;4906107;29;20475;-95
2023/04/09 08:08:18;;;;;;;55.70;29.70;;;;;;;7.45;100.00;101045.44;4905949;29;20106;-96
2023/04/09 08:10:46;;;;;;;58.50;29.13;;;;;;;7.31;100.00;101037.38;4905807;29;20032;-95
2023/04/09 08:13:12;;;;;;;47.88;27.35;;;;;;;7.49;100.00;101031.59;4905346;29;20057;-95
2023/04/09 08:15:41;;;;;;;47.65;27.38;;;;;;;7.49;100.00;101031.59;4906534;29;20028;-96
2023/04/09 08:18:07;;;;;;;50.40;26.77;;;;;;;7.72;100.00;101038.47;4904630;29;20386;-96
2023/04/09 08:20:32;;;;;;;50.85;28.60;;;;;;;7.68;100.00;101031.75;4903651;29;20039;-96
2023/04/09 08:22:58;;;;;;;54.70;28.30;;;;;;;7.78;100.00;101027.13;4903562;29;20066;-96
2023/04/09 08:25:23;;;;;;;48.72;27.45;;;;;;;7.96;100.00;101033.34;4904077;29;20554;-96
2023/04/09 08:27:57;;;;;;;48.72;28.45;;;;;;;8.03;100.00;101032.22;4904036;29;20032;-96
2023/04/09 08:30:27;;;;;;;48.88;27.85;;;;;;;7.89;100.00;101025.84;4903527;29;20032;-96
2023/04/09 08:32:53;;;;;;;45.22;28.00;;;;;;;7.92;100.00;101035.19;4903206;29;20035;-96
2023/04/09 08:35:27;;;;;;;45.95;28.73;;;;;;;8.05;100.00;101033.84;4904067;29;20032;-96
2023/04/09 08:37:58;;;;;;;56.05;29.50;;;;;;;8.15;100.00;101031.78;4903342;29;20051;-96
2023/04/09 08:40:23;;;;;;;48.63;28.65;;;;;;;8.20;100.00;101032.44;4903288;29;20127;-96
2023/04/09 08:42:59;;;;;;;51.03;29.42;;;;;;;8.05;100.00;101039.00;4903929;29;20056;-96
2023/04/09 08:45:27;;;;;;;60.35;28.75;;;;;;;8.07;100.00;101044.91;4903951;29;20039;-96
2023/04/09 08:47:53;;;;;;;39.50;26.13;;;;;;;8.30;100.00;101035.50;4903224;29;20040;-96
2023/04/09 08:50:19;;;;;;;41.67;26.08;;;;;;;8.59;100.00;101036.13;4903812;29;20087;-95
2023/04/09 08:52:49;;;;;;;56.60;27.65;;;;;;;8.80;99.50;101032.66;4919083;29;20024;-96
2023/04/09 08:55:14;;;;;;;50.47;28.80;;;;;;;8.88;97.48;101040.13;4903523;29;20024;-96
2023/04/09 08:57:42;;;;;;;47.40;27.88;;;;;;;8.92;97.51;101045.03;4903681;29;20524;-96
2023/04/09 09:00:09;;;;;;;51.70;27.08;;;;;;;8.71;97.56;101031.31;4902922;29;20028;-96
2023/04/09 09:02:34;;;;;;;42.28;26.48;;;;;;;9.12;97.27;101033.09;4904305;29;20039;-96
2023/04/09 09:05:00;;;;;;;45.72;27.95;;;;;;;9.40;93.85;101040.50;4904084;29;20031;-96
2023/04/09 09:07:33;;;;;;;41.70;26.80;;;;;;;9.37;92.46;101036.31;4918825;29;20047;-96
2023/04/09 09:10:03;;;;;;;40.40;25.23;;;;;;;9.52;92.74;101039.13;4903748;29;20059;-96
2023/04/09 09:12:50;;;;;;;37.58;24.70;;;;;;;9.49;93.10;101039.28;4904163;29;20036;-96
2023/04/09 09:15:34;;;;;;;42.30;25.42;;;;;;;9.80;91.14;101049.91;4903809;29;20039;-96
2023/04/09 09:18:02;;;;;;;42.30;27.17;;;;;;;10.04;88.71;101034.22;4906871;29;20118;-96
2023/04/09 09:20:31;;;;;;;42.55;25.13;;;;;;;10.91;84.71;101037.03;4903922;29;20067;-96
2023/04/09 09:22:56;;;;;;;44.38;25.33;;;;;;;11.48;81.71;101034.16;4903363;29;20056;-96
2023/04/09 09:25:24;;;;;;;35.42;23.08;;;;;;;11.25;79.38;101036.19;4905323;29;20028;-96
2023/04/09 09:28:05;;;;;;;32.33;20.77;;;;;;;11.76;77.94;101030.97;4903481;29;20028;-96
2023/04/09 09:31:00;;;;;;;36.97;22.30;;;;;;;12.35;75.57;101011.41;4904931;29;20024;-96
2023/04/09 09:33:41;;;;;;;31.73;21.88;;;;;;;11.78;76.70;101034.31;4905346;29;20020;-96
2023/04/09 09:36:10;;;;;;;35.53;21.13;;;;;;;12.15;75.76;101019.44;4904303;29;20043;-96
2023/04/09 09:39:12;;;;;;;34.75;21.58;;;;;;;12.80;71.77;101027.00;4904359;29;20130;-96
2023/04/09 09:41:49;;;;;;;30.83;20.52;;;;;;;13.36;72.49;101015.09;4811499;29;20030;-96
2023/04/09 09:45:06;;;;;;;;;;;;;;;;;;;;;
2023/04/09 09:47:47;;;;;;;34.70;20.75;;;;;;;16.04;60.24;101024.53;4865371;29;20124;-96
2023/04/09 09:50:56;;;;;;;;;;;;;;;;;;;;;
2023/04/09 09:53:40;;;;;;;29.58;18.42;;;;;;;16.84;53.77;100995.31;4928543;29;20063;-96
2023/04/09 09:56:42;;;;;;;32.17;18.92;;;;;;;17.43;52.92;101005.56;4912415;29;20119;-96
2023/04/09 09:59:32;;;;;;;29.58;19.08;;;;;;;18.48;51.81;100997.28;4908763;29;20040;-96
2023/04/09 10:02:30;;;;;;;;;;;;;;;;;;;;;
2023/04/09 10:05:23;;;;;;;;;;;;;;;;;;;;;
2023/04/09 10:08:46;;;;;;;23.55;15.25;;;;;;;19.88;46.55;100994.22;4927781;29;20128;-96
2023/04/09 10:12:06;;;;;;;23.73;17.08;;;;;;;20.16;46.40;100999.63;4930457;29;20056;-96
2023/04/09 10:18:02;;;;;;;19.75;14.88;;;;;;;21.25;43.17;101006.28;4930161;29;20044;-96
2023/04/09 10:24:05;;;;;;;;;;;;;;;;;;;;;
2023/04/09 10:26:55;;;;;;;20.25;13.80;;;;;;;22.22;41.38;100995.28;4922560;29;20091;-96
2023/04/09 10:29:54;;;;;;;21.23;12.90;;;;;;;22.66;41.35;100981.31;4912294;29;20073;-96
2023/04/09 10:32:42;;;;;;;19.58;12.82;;;;;;;21.96;42.24;100978.56;4916253;29;20025;-96
2023/04/09 10:35:26;;;;;;;20.00;12.48;;;;;;;21.22;42.47;100975.06;4912882;29;20044;-96
2023/04/09 10:38:01;;;;;;;19.85;12.57;;;;;;;21.33;42.14;100966.97;4915775;29;20482;-96
2023/04/09 10:40:35;;;;;;;16.13;12.23;;;;;;;21.76;41.39;100962.09;4904108;29;20064;-96
2023/04/09 10:43:09;;;;;;;16.83;11.65;;;;;;;21.51;42.07;100961.00;4909217;29;20032;-96
2023/04/09 10:45:42;;;;;;;18.05;11.77;;;;;;;22.21;40.78;100955.97;4902038;29;20095;-96
2023/04/09 10:48:36;;;;;;;;;;;;;;;;;;;;;
2023/04/09 10:51:43;;;;;;;13.93;10.70;;;;;;;21.65;41.20;100949.16;4927837;29;20056;-96
2023/04/09 10:54:44;;;;;;;17.30;12.40;;;;;;;20.48;43.39;100950.38;4911898;29;20037;-96
2023/04/09 10:57:27;;;;;;;17.45;10.73;;;;;;;21.40;41.79;100940.19;4872119;29;20041;-96
2023/04/09 11:00:29;;;;;;;;;;;;;;;;;;;;;
2023/04/09 11:03:46;;;;;;;20.05;10.20;;;;;;;20.94;42.67;100934.81;4872053;29;20097;-96
2023/04/09 11:06:44;;;;;;;16.42;10.73;;;;;;;20.87;43.28;100913.59;4850437;29;20124;-96
2023/04/09 11:09:44;;;;;;;14.27;10.15;;;;;;;21.50;41.42;100905.00;4859439;29;20056;-96
2023/04/09 11:12:21;;;;;;;14.13;9.10;;;;;;;21.72;40.87;100916.88;4855004;29;20045;-96
2023/04/09 11:14:57;;;;;;;13.20;8.65;;;;;;;21.93;40.46;100902.66;4853371;29;20034;-96
2023/04/09 11:17:38;;;;;;;11.98;8.40;;;;;;;22.56;39.78;100907.75;4867335;29;20041;-96
2023/04/09 11:20:04;;;;;;;11.55;7.43;;;;;;;22.75;37.66;100912.00;4852795;29;20377;-95
2023/04/09 11:22:40;;;;;;;12.50;7.15;;;;;;;23.05;37.67;100894.88;4853137;29;20056;-96
2023/04/09 11:25:12;;;;;;;13.55;7.20;;;;;;;22.50;38.45;100891.75;4854102;29;20038;-96
2023/04/09 11:27:43;;;;;;;;;;;;;;;22.14;37.90;100895.28;4871776;29;20040;-96
2023/04/09 11:30:15;;;;;;;10.15;7.35;;;;;;;21.11;40.10;100891.22;4917384;29;20003;-95
2023/04/09 11:32:41;;;;;;;12.23;8.02;;;;;;;20.30;41.68;100884.69;4907547;29;20032;-94
2023/04/09 11:35:28;;;;;;;11.27;6.60;;;;;;;19.79;42.13;100870.09;4903289;29;20050;-95
2023/04/09 11:37:54;;;;;;;9.98;7.20;;;;;;;19.27;44.18;100876.50;4903670;29;20491;-95
2023/04/09 11:40:21;;;;;;;9.80;6.80;;;;;;;19.94;42.96;100857.41;4903525;29;20079;-96
2023/04/09 11:42:55;;;;;;;8.63;6.43;;;;;;;19.64;43.38;100861.78;4903226;29;20043;-95
2023/04/09 11:45:24;;;;;;;13.13;7.03;;;;;;;19.53;43.76;100864.56;4903304;29;20015;-95
2023/04/09 11:47:50;;;;;;;9.85;7.20;;;;;;;19.58;44.00;100862.34;4903107;29;20510;-95
2023/04/09 11:50:18;;;;;;;9.50;6.63;;;;;;;18.96;44.91;100861.63;4903435;29;20502;-96